sensor_id;sensor_type;location;lat;lon;timestamp;P1;durP1;ratioP1;P2;durP2;ratioP2
1829;SDS011;914;48.118;11.600;2023-02-11T00:02:07;17.43;;;11.40;;
1829;SDS011;914;48.118;11.600;2023-02-11T00:04:33;16.80;;;10.77;;
1829;SDS011;914;48.118;11.600;2023-02-11T00:06:58;18.87;;;12.03;;
1829;SDS011;914;48.118;11.600;2023-02-11T00:09:24;18.50;;;11.67;;
1829;SDS011;914;48.118;11.600;2023-02-11T00:11:49;15.23;;;10.90;;
1829;SDS011;914;48.118;11.600;2023-02-11T00:14:15;16.83;;;11.33;;
1829;SDS011;914;48.118;11.600;2023-02-11T00:16:41;15.27;;;10.07;;
1829;SDS011;914;48.118;11.600;2023-02-11T00:19:06;19.63;;;11.17;;
1829;SDS011;914;48.118;11.600;2023-02-11T00:21:32;18.47;;;11.13;;
1829;SDS011;914;48.118;11.600;2023-02-11T00:23:58;19.30;;;11.20;;
1829;SDS011;914;48.118;11.600;2023-02-11T00:26:27;15.97;;;10.70;;
1829;SDS011;914;48.118;11.600;2023-02-11T00:28:55;16.27;;;11.57;;
1829;SDS011;914;48.118;11.600;2023-02-11T00:31:21;19.80;;;11.83;;
1829;SDS011;914;48.118;11.600;2023-02-11T00:33:47;18.57;;;11.30;;
1829;SDS011;914;48.118;11.600;2023-02-11T00:36:14;18.10;;;11.30;;
1829;SDS011;914;48.118;11.600;2023-02-11T00:38:43;16.87;;;11.33;;
1829;SDS011;914;48.118;11.600;2023-02-11T00:41:12;14.47;;;10.50;;
1829;SDS011;914;48.118;11.600;2023-02-11T00:43:39;19.17;;;12.03;;
1829;SDS011;914;48.118;11.600;2023-02-11T00:46:05;16.07;;;11.27;;
1829;SDS011;914;48.118;11.600;2023-02-11T00:48:31;17.30;;;11.17;;
1829;SDS011;914;48.118;11.600;2023-02-11T00:50:57;20.77;;;12.17;;
1829;SDS011;914;48.118;11.600;2023-02-11T00:53:23;15.60;;;10.90;;
1829;SDS011;914;48.118;11.600;2023-02-11T00:55:49;20.90;;;11.93;;
1829;SDS011;914;48.118;11.600;2023-02-11T00:58:14;17.40;;;11.53;;
1829;SDS011;914;48.118;11.600;2023-02-11T01:00:40;17.63;;;11.23;;
1829;SDS011;914;48.118;11.600;2023-02-11T01:03:06;14.50;;;10.43;;
1829;SDS011;914;48.118;11.600;2023-02-11T01:05:31;17.80;;;11.30;;
1829;SDS011;914;48.118;11.600;2023-02-11T01:07:57;19.97;;;10.53;;
1829;SDS011;914;48.118;11.600;2023-02-11T01:10:23;15.57;;;10.50;;
1829;SDS011;914;48.118;11.600;2023-02-11T01:12:49;16.03;;;10.23;;
1829;SDS011;914;48.118;11.600;2023-02-11T01:15:16;16.53;;;10.13;;
1829;SDS011;914;48.118;11.600;2023-02-11T01:17:43;14.27;;;10.37;;
1829;SDS011;914;48.118;11.600;2023-02-11T01:20:18;16.23;;;10.33;;
1829;SDS011;914;48.118;11.600;2023-02-11T01:22:46;17.60;;;10.50;;
1829;SDS011;914;48.118;11.600;2023-02-11T01:25:12;17.10;;;10.90;;
1829;SDS011;914;48.118;11.600;2023-02-11T01:27:38;17.10;;;10.40;;
1829;SDS011;914;48.118;11.600;2023-02-11T01:30:05;16.40;;;10.03;;
1829;SDS011;914;48.118;11.600;2023-02-11T01:32:33;14.43;;;10.13;;
1829;SDS011;914;48.118;11.600;2023-02-11T01:34:59;18.40;;;9.90;;
1829;SDS011;914;48.118;11.600;2023-02-11T01:37:28;13.83;;;9.83;;
1829;SDS011;914;48.118;11.600;2023-02-11T01:39:56;14.37;;;9.67;;
1829;SDS011;914;48.118;11.600;2023-02-11T01:42:22;15.60;;;10.27;;
1829;SDS011;914;48.118;11.600;2023-02-11T01:44:49;16.50;;;9.93;;
1829;SDS011;914;48.118;11.600;2023-02-11T01:47:19;17.33;;;10.13;;
1829;SDS011;914;48.118;11.600;2023-02-11T01:49:49;14.30;;;9.67;;
1829;SDS011;914;48.118;11.600;2023-02-11T01:54:54;15.13;;;9.87;;
1829;SDS011;914;48.118;11.600;2023-02-11T01:57:44;15.40;;;9.70;;
1829;SDS011;914;48.118;11.600;2023-02-11T02:02:46;18.33;;;9.87;;
1829;SDS011;914;48.118;11.600;2023-02-11T02:05:31;16.77;;;9.77;;
1829;SDS011;914;48.118;11.600;2023-02-11T02:08:29;15.40;;;9.53;;
1829;SDS011;914;48.118;11.600;2023-02-11T02:11:00;16.57;;;9.83;;
1829;SDS011;914;48.118;11.600;2023-02-11T02:13:27;14.27;;;9.27;;
1829;SDS011;914;48.118;11.600;2023-02-11T02:23:51;14.53;;;9.10;;
1829;SDS011;914;48.118;11.600;2023-02-11T02:35:08;15.30;;;9.10;;
1829;SDS011;914;48.118;11.600;2023-02-11T02:38:16;15.77;;;9.80;;
1829;SDS011;914;48.118;11.600;2023-02-11T02:40:47;15.00;;;9.17;;
1829;SDS011;914;48.118;11.600;2023-02-11T02:43:18;12.97;;;8.93;;
1829;SDS011;914;48.118;11.600;2023-02-11T02:45:45;13.63;;;8.93;;
1829;SDS011;914;48.118;11.600;2023-02-11T02:51:14;13.20;;;9.03;;
1829;SDS011;914;48.118;11.600;2023-02-11T02:56:36;13.77;;;9.03;;
1829;SDS011;914;48.118;11.600;2023-02-11T03:10:20;13.87;;;8.90;;
1829;SDS011;914;48.118;11.600;2023-02-11T03:12:56;14.47;;;8.30;;
1829;SDS011;914;48.118;11.600;2023-02-11T03:15:22;12.97;;;8.43;;
1829;SDS011;914;48.118;11.600;2023-02-11T03:17:54;12.10;;;8.60;;
1829;SDS011;914;48.118;11.600;2023-02-11T03:20:24;12.03;;;8.33;;
1829;SDS011;914;48.118;11.600;2023-02-11T03:23:06;13.30;;;8.80;;
1829;SDS011;914;48.118;11.600;2023-02-11T03:25:40;11.73;;;8.20;;
1829;SDS011;914;48.118;11.600;2023-02-11T03:28:14;12.87;;;7.97;;
1829;SDS011;914;48.118;11.600;2023-02-11T03:33:51;11.83;;;7.40;;
1829;SDS011;914;48.118;11.600;2023-02-11T03:36:29;12.83;;;7.70;;
1829;SDS011;914;48.118;11.600;2023-02-11T03:39:02;10.57;;;7.00;;
1829;SDS011;914;48.118;11.600;2023-02-11T03:41:29;11.30;;;7.37;;
1829;SDS011;914;48.118;11.600;2023-02-11T03:43:57;12.10;;;7.70;;
1829;SDS011;914;48.118;11.600;2023-02-11T03:46:32;10.17;;;7.30;;
1829;SDS011;914;48.118;11.600;2023-02-11T03:49:04;13.03;;;7.03;;
1829;SDS011;914;48.118;11.600;2023-02-11T03:51:33;10.10;;;6.50;;
1829;SDS011;914;48.118;11.600;2023-02-11T03:54:01;10.80;;;6.90;;
1829;SDS011;914;48.118;11.600;2023-02-11T03:56:38;10.33;;;6.87;;
1829;SDS011;914;48.118;11.600;2023-02-11T03:59:10;10.20;;;6.63;;
1829;SDS011;914;48.118;11.600;2023-02-11T04:01:36;11.70;;;6.33;;
1829;SDS011;914;48.118;11.600;2023-02-11T04:04:02;9.93;;;6.90;;
1829;SDS011;914;48.118;11.600;2023-02-11T04:06:27;10.53;;;6.17;;
1829;SDS011;914;48.118;11.600;2023-02-11T04:08:53;10.20;;;6.70;;
1829;SDS011;914;48.118;11.600;2023-02-11T04:11:19;9.83;;;6.87;;
1829;SDS011;914;48.118;11.600;2023-02-11T04:13:45;10.13;;;6.67;;
1829;SDS011;914;48.118;11.600;2023-02-11T04:16:14;8.67;;;5.93;;
1829;SDS011;914;48.118;11.600;2023-02-11T04:18:39;7.70;;;5.70;;
1829;SDS011;914;48.118;11.600;2023-02-11T04:21:05;9.40;;;5.87;;
1829;SDS011;914;48.118;11.600;2023-02-11T04:23:31;7.90;;;5.70;;
1829;SDS011;914;48.118;11.600;2023-02-11T04:25:57;9.10;;;5.70;;
1829;SDS011;914;48.118;11.600;2023-02-11T04:28:23;10.63;;;5.97;;
1829;SDS011;914;48.118;11.600;2023-02-11T04:30:50;10.53;;;5.77;;
1829;SDS011;914;48.118;11.600;2023-02-11T04:33:16;7.13;;;5.43;;
1829;SDS011;914;48.118;11.600;2023-02-11T04:35:42;8.80;;;6.13;;
1829;SDS011;914;48.118;11.600;2023-02-11T04:38:07;7.50;;;5.30;;
1829;SDS011;914;48.118;11.600;2023-02-11T04:40:33;9.17;;;6.07;;
1829;SDS011;914;48.118;11.600;2023-02-11T04:42:59;8.40;;;5.80;;
1829;SDS011;914;48.118;11.600;2023-02-11T04:45:25;9.53;;;5.43;;
1829;SDS011;914;48.118;11.600;2023-02-11T04:47:50;8.80;;;5.80;;
1829;SDS011;914;48.118;11.600;2023-02-11T04:50:16;8.43;;;5.60;;
1829;SDS011;914;48.118;11.600;2023-02-11T04:52:42;9.50;;;6.13;;
1829;SDS011;914;48.118;11.600;2023-02-11T04:55:08;8.30;;;6.07;;
1829;SDS011;914;48.118;11.600;2023-02-11T04:57:33;8.47;;;5.80;;
1829;SDS011;914;48.118;11.600;2023-02-11T04:59:59;11.87;;;6.57;;
1829;SDS011;914;48.118;11.600;2023-02-11T05:02:25;8.00;;;6.13;;
1829;SDS011;914;48.118;11.600;2023-02-11T05:04:50;9.47;;;6.40;;
1829;SDS011;914;48.118;11.600;2023-02-11T05:07:16;9.50;;;5.97;;
1829;SDS011;914;48.118;11.600;2023-02-11T05:09:41;12.40;;;6.53;;
1829;SDS011;914;48.118;11.600;2023-02-11T05:12:07;9.60;;;6.07;;
1829;SDS011;914;48.118;11.600;2023-02-11T05:14:33;10.90;;;7.27;;
1829;SDS011;914;48.118;11.600;2023-02-11T05:16:58;8.73;;;6.40;;
1829;SDS011;914;48.118;11.600;2023-02-11T05:19:24;10.17;;;6.23;;
1829;SDS011;914;48.118;11.600;2023-02-11T05:24:39;11.13;;;6.43;;
1829;SDS011;914;48.118;11.600;2023-02-11T05:27:04;9.70;;;5.73;;
1829;SDS011;914;48.118;11.600;2023-02-11T05:29:30;11.37;;;6.57;;
1829;SDS011;914;48.118;11.600;2023-02-11T05:31:57;9.10;;;5.87;;
1829;SDS011;914;48.118;11.600;2023-02-11T05:34:24;9.70;;;6.30;;
1829;SDS011;914;48.118;11.600;2023-02-11T05:36:50;11.17;;;6.70;;
1829;SDS011;914;48.118;11.600;2023-02-11T05:39:18;8.87;;;5.97;;
1829;SDS011;914;48.118;11.600;2023-02-11T05:41:44;9.20;;;6.60;;
1829;SDS011;914;48.118;11.600;2023-02-11T05:44:10;9.67;;;6.60;;
1829;SDS011;914;48.118;11.600;2023-02-11T05:46:36;8.87;;;5.83;;
1829;SDS011;914;48.118;11.600;2023-02-11T05:49:04;9.70;;;6.00;;
1829;SDS011;914;48.118;11.600;2023-02-11T05:51:30;8.07;;;5.73;;
1829;SDS011;914;48.118;11.600;2023-02-11T05:53:58;8.03;;;5.80;;
1829;SDS011;914;48.118;11.600;2023-02-11T05:56:24;7.70;;;5.93;;
1829;SDS011;914;48.118;11.600;2023-02-11T05:58:50;8.83;;;5.67;;
1829;SDS011;914;48.118;11.600;2023-02-11T06:01:15;8.57;;;5.50;;
1829;SDS011;914;48.118;11.600;2023-02-11T06:03:42;9.03;;;5.33;;
1829;SDS011;914;48.118;11.600;2023-02-11T06:06:11;7.50;;;5.13;;
1829;SDS011;914;48.118;11.600;2023-02-11T06:08:37;7.80;;;5.73;;
1829;SDS011;914;48.118;11.600;2023-02-11T06:11:03;10.67;;;5.70;;
1829;SDS011;914;48.118;11.600;2023-02-11T06:13:29;8.27;;;5.70;;
1829;SDS011;914;48.118;11.600;2023-02-11T06:15:58;11.03;;;5.90;;
1829;SDS011;914;48.118;11.600;2023-02-11T06:18:27;8.53;;;6.27;;
1829;SDS011;914;48.118;11.600;2023-02-11T06:20:53;8.13;;;5.53;;
1829;SDS011;914;48.118;11.600;2023-02-11T06:23:20;9.83;;;5.87;;
1829;SDS011;914;48.118;11.600;2023-02-11T06:25:45;9.23;;;5.40;;
1829;SDS011;914;48.118;11.600;2023-02-11T06:28:11;7.27;;;5.20;;
1829;SDS011;914;48.118;11.600;2023-02-11T06:30:37;7.83;;;5.60;;
1829;SDS011;914;48.118;11.600;2023-02-11T06:33:03;7.23;;;5.77;;
1829;SDS011;914;48.118;11.600;2023-02-11T06:35:29;6.80;;;5.00;;
1829;SDS011;914;48.118;11.600;2023-02-11T06:37:55;8.00;;;5.10;;
1829;SDS011;914;48.118;11.600;2023-02-11T06:40:20;8.60;;;5.53;;
1829;SDS011;914;48.118;11.600;2023-02-11T06:42:46;9.73;;;5.83;;
1829;SDS011;914;48.118;11.600;2023-02-11T06:45:12;8.63;;;5.73;;
1829;SDS011;914;48.118;11.600;2023-02-11T06:47:38;9.90;;;5.50;;
1829;SDS011;914;48.118;11.600;2023-02-11T06:50:05;6.47;;;5.23;;
1829;SDS011;914;48.118;11.600;2023-02-11T06:52:32;7.83;;;5.47;;
1829;SDS011;914;48.118;11.600;2023-02-11T06:54:58;7.07;;;5.77;;
1829;SDS011;914;48.118;11.600;2023-02-11T06:57:24;7.13;;;5.30;;
1829;SDS011;914;48.118;11.600;2023-02-11T06:59:50;9.40;;;5.27;;
1829;SDS011;914;48.118;11.600;2023-02-11T07:02:16;6.87;;;4.63;;
1829;SDS011;914;48.118;11.600;2023-02-11T07:04:44;6.57;;;4.83;;
1829;SDS011;914;48.118;11.600;2023-02-11T07:07:10;8.73;;;5.40;;
1829;SDS011;914;48.118;11.600;2023-02-11T07:09:35;9.03;;;4.73;;
1829;SDS011;914;48.118;11.600;2023-02-11T07:12:01;10.27;;;5.13;;
1829;SDS011;914;48.118;11.600;2023-02-11T07:14:27;7.27;;;5.20;;
1829;SDS011;914;48.118;11.600;2023-02-11T07:16:55;7.17;;;5.03;;
1829;SDS011;914;48.118;11.600;2023-02-11T07:19:22;7.77;;;5.30;;
1829;SDS011;914;48.118;11.600;2023-02-11T07:21:50;7.53;;;4.67;;
1829;SDS011;914;48.118;11.600;2023-02-11T07:24:18;8.57;;;5.17;;
1829;SDS011;914;48.118;11.600;2023-02-11T07:26:44;5.77;;;4.37;;
1829;SDS011;914;48.118;11.600;2023-02-11T07:29:10;9.00;;;5.00;;
1829;SDS011;914;48.118;11.600;2023-02-11T07:31:35;8.90;;;5.33;;
1829;SDS011;914;48.118;11.600;2023-02-11T07:34:01;7.03;;;4.87;;
1829;SDS011;914;48.118;11.600;2023-02-11T07:36:28;6.30;;;4.10;;
1829;SDS011;914;48.118;11.600;2023-02-11T07:38:55;7.43;;;4.77;;
1829;SDS011;914;48.118;11.600;2023-02-11T07:41:21;6.50;;;5.00;;
1829;SDS011;914;48.118;11.600;2023-02-11T07:43:48;6.77;;;5.07;;
1829;SDS011;914;48.118;11.600;2023-02-11T07:46:16;7.57;;;4.77;;
1829;SDS011;914;48.118;11.600;2023-02-11T07:48:50;9.17;;;4.93;;
1829;SDS011;914;48.118;11.600;2023-02-11T07:51:17;6.43;;;4.67;;
1829;SDS011;914;48.118;11.600;2023-02-11T07:53:45;7.60;;;5.13;;
1829;SDS011;914;48.118;11.600;2023-02-11T07:56:12;7.53;;;4.90;;
1829;SDS011;914;48.118;11.600;2023-02-11T07:58:39;7.63;;;5.30;;
1829;SDS011;914;48.118;11.600;2023-02-11T08:01:11;8.33;;;5.40;;
1829;SDS011;914;48.118;11.600;2023-02-11T08:03:39;6.83;;;5.17;;
1829;SDS011;914;48.118;11.600;2023-02-11T08:06:07;12.43;;;5.20;;
1829;SDS011;914;48.118;11.600;2023-02-11T08:08:37;6.73;;;4.97;;
1829;SDS011;914;48.118;11.600;2023-02-11T08:11:07;7.73;;;5.00;;
1829;SDS011;914;48.118;11.600;2023-02-11T08:13:37;9.27;;;5.57;;
1829;SDS011;914;48.118;11.600;2023-02-11T08:16:03;8.90;;;5.03;;
1829;SDS011;914;48.118;11.600;2023-02-11T08:18:30;9.10;;;5.07;;
1829;SDS011;914;48.118;11.600;2023-02-11T08:20:56;9.73;;;5.13;;
1829;SDS011;914;48.118;11.600;2023-02-11T08:23:27;8.30;;;5.33;;
1829;SDS011;914;48.118;11.600;2023-02-11T08:25:59;7.90;;;5.30;;
1829;SDS011;914;48.118;11.600;2023-02-11T08:28:28;9.17;;;5.83;;
1829;SDS011;914;48.118;11.600;2023-02-11T08:30:54;9.17;;;5.70;;
1829;SDS011;914;48.118;11.600;2023-02-11T08:33:19;10.07;;;6.20;;
1829;SDS011;914;48.118;11.600;2023-02-11T08:35:45;8.43;;;5.70;;
1829;SDS011;914;48.118;11.600;2023-02-11T08:38:11;9.30;;;6.00;;
1829;SDS011;914;48.118;11.600;2023-02-11T08:40:36;11.30;;;5.80;;
1829;SDS011;914;48.118;11.600;2023-02-11T08:43:02;11.80;;;6.20;;
1829;SDS011;914;48.118;11.600;2023-02-11T08:45:27;7.40;;;5.50;;
1829;SDS011;914;48.118;11.600;2023-02-11T08:47:53;11.03;;;5.97;;
1829;SDS011;914;48.118;11.600;2023-02-11T08:50:19;8.50;;;5.70;;
1829;SDS011;914;48.118;11.600;2023-02-11T08:52:44;10.87;;;6.13;;
1829;SDS011;914;48.118;11.600;2023-02-11T08:55:10;10.20;;;5.50;;
1829;SDS011;914;48.118;11.600;2023-02-11T08:57:36;9.43;;;5.43;;
1829;SDS011;914;48.118;11.600;2023-02-11T09:00:02;9.80;;;5.47;;
1829;SDS011;914;48.118;11.600;2023-02-11T09:02:28;7.73;;;5.37;;
1829;SDS011;914;48.118;11.600;2023-02-11T09:04:53;8.50;;;5.33;;
1829;SDS011;914;48.118;11.600;2023-02-11T09:07:19;7.90;;;5.77;;
1829;SDS011;914;48.118;11.600;2023-02-11T09:09:45;9.20;;;5.87;;
1829;SDS011;914;48.118;11.600;2023-02-11T09:12:10;14.47;;;6.27;;
1829;SDS011;914;48.118;11.600;2023-02-11T09:14:36;10.97;;;6.17;;
1829;SDS011;914;48.118;11.600;2023-02-11T09:17:02;9.37;;;6.40;;
1829;SDS011;914;48.118;11.600;2023-02-11T09:19:28;11.37;;;6.13;;
1829;SDS011;914;48.118;11.600;2023-02-11T09:21:54;8.83;;;6.27;;
1829;SDS011;914;48.118;11.600;2023-02-11T09:24:20;12.17;;;7.17;;
1829;SDS011;914;48.118;11.600;2023-02-11T09:26:45;12.97;;;7.13;;
1829;SDS011;914;48.118;11.600;2023-02-11T09:29:11;10.87;;;6.63;;
1829;SDS011;914;48.118;11.600;2023-02-11T09:31:37;13.77;;;7.47;;
1829;SDS011;914;48.118;11.600;2023-02-11T09:34:04;9.83;;;5.80;;
1829;SDS011;914;48.118;11.600;2023-02-11T09:36:31;7.77;;;5.57;;
1829;SDS011;914;48.118;11.600;2023-02-11T09:39:02;7.90;;;5.77;;
1829;SDS011;914;48.118;11.600;2023-02-11T09:41:34;8.57;;;5.07;;
1829;SDS011;914;48.118;11.600;2023-02-11T09:44:26;8.70;;;5.80;;
1829;SDS011;914;48.118;11.600;2023-02-11T09:46:57;13.47;;;6.10;;
1829;SDS011;914;48.118;11.600;2023-02-11T09:49:29;8.23;;;6.07;;
1829;SDS011;914;48.118;11.600;2023-02-11T09:52:06;9.37;;;6.33;;
1829;SDS011;914;48.118;11.600;2023-02-11T09:54:43;7.90;;;5.70;;
1829;SDS011;914;48.118;11.600;2023-02-11T09:57:19;10.90;;;6.07;;
1829;SDS011;914;48.118;11.600;2023-02-11T09:59:45;11.33;;;6.20;;
1829;SDS011;914;48.118;11.600;2023-02-11T10:02:31;11.77;;;5.70;;
1829;SDS011;914;48.118;11.600;2023-02-11T10:05:12;12.67;;;6.30;;
1829;SDS011;914;48.118;11.600;2023-02-11T10:16:13;11.77;;;6.53;;
1829;SDS011;914;48.118;11.600;2023-02-11T10:21:59;10.53;;;6.00;;
1829;SDS011;914;48.118;11.600;2023-02-11T10:24:36;15.10;;;6.50;;
1829;SDS011;914;48.118;11.600;2023-02-11T10:27:16;15.37;;;6.50;;
1829;SDS011;914;48.118;11.600;2023-02-11T10:29:56;10.93;;;6.87;;
1829;SDS011;914;48.118;11.600;2023-02-11T10:35:25;11.80;;;5.93;;
1829;SDS011;914;48.118;11.600;2023-02-11T10:37:52;12.13;;;6.77;;
1829;SDS011;914;48.118;11.600;2023-02-11T10:40:20;12.67;;;7.10;;
1829;SDS011;914;48.118;11.600;2023-02-11T10:42:50;14.20;;;7.17;;
1829;SDS011;914;48.118;11.600;2023-02-11T10:45:34;12.10;;;6.67;;
1829;SDS011;914;48.118;11.600;2023-02-11T10:48:34;15.80;;;7.40;;
1829;SDS011;914;48.118;11.600;2023-02-11T10:53:45;12.80;;;7.23;;
1829;SDS011;914;48.118;11.600;2023-02-11T10:56:18;10.63;;;6.93;;
1829;SDS011;914;48.118;11.600;2023-02-11T11:01:42;13.03;;;8.27;;
1829;SDS011;914;48.118;11.600;2023-02-11T11:07:11;14.07;;;8.27;;
1829;SDS011;914;48.118;11.600;2023-02-11T11:09:49;15.90;;;8.00;;
1829;SDS011;914;48.118;11.600;2023-02-11T11:12:24;13.40;;;7.70;;
1829;SDS011;914;48.118;11.600;2023-02-11T11:17:45;14.47;;;8.00;;
1829;SDS011;914;48.118;11.600;2023-02-11T11:22:45;13.47;;;7.60;;
1829;SDS011;914;48.118;11.600;2023-02-11T11:25:27;14.50;;;7.63;;
1829;SDS011;914;48.118;11.600;2023-02-11T11:27:58;11.13;;;7.67;;
1829;SDS011;914;48.118;11.600;2023-02-11T11:30:58;14.27;;;8.13;;
1829;SDS011;914;48.118;11.600;2023-02-11T11:33:20;12.53;;;8.03;;
1829;SDS011;914;48.118;11.600;2023-02-11T11:36:00;13.47;;;7.20;;
1829;SDS011;914;48.118;11.600;2023-02-11T11:38:32;14.47;;;7.77;;
1829;SDS011;914;48.118;11.600;2023-02-11T11:41:15;11.43;;;7.87;;
1829;SDS011;914;48.118;11.600;2023-02-11T11:46:38;12.30;;;8.03;;
1829;SDS011;914;48.118;11.600;2023-02-11T11:49:21;11.30;;;7.43;;
1829;SDS011;914;48.118;11.600;2023-02-11T11:51:55;12.27;;;7.87;;
1829;SDS011;914;48.118;11.600;2023-02-11T11:54:35;9.83;;;7.30;;
1829;SDS011;914;48.118;11.600;2023-02-11T11:57:13;12.60;;;7.50;;
1829;SDS011;914;48.118;11.600;2023-02-11T11:59:43;13.97;;;7.53;;
1829;SDS011;914;48.118;11.600;2023-02-11T12:05:00;14.10;;;6.93;;
1829;SDS011;914;48.118;11.600;2023-02-11T12:25:06;14.93;;;7.77;;
1829;SDS011;914;48.118;11.600;2023-02-11T12:33:24;11.63;;;7.00;;
1829;SDS011;914;48.118;11.600;2023-02-11T12:41:56;13.53;;;6.80;;
1829;SDS011;914;48.118;11.600;2023-02-11T12:53:13;12.30;;;7.13;;
1829;SDS011;914;48.118;11.600;2023-02-11T12:55:43;13.07;;;6.80;;
1829;SDS011;914;48.118;11.600;2023-02-11T12:58:13;11.53;;;7.10;;
1829;SDS011;914;48.118;11.600;2023-02-11T13:03:12;10.60;;;6.77;;
1829;SDS011;914;48.118;11.600;2023-02-11T13:05:47;13.93;;;7.33;;
1829;SDS011;914;48.118;11.600;2023-02-11T13:10:57;16.03;;;7.23;;
1829;SDS011;914;48.118;11.600;2023-02-11T13:13:49;9.77;;;6.73;;
1829;SDS011;914;48.118;11.600;2023-02-11T13:16:33;13.90;;;7.40;;
1829;SDS011;914;48.118;11.600;2023-02-11T13:19:12;10.50;;;7.33;;
1829;SDS011;914;48.118;11.600;2023-02-11T13:21:58;12.27;;;7.47;;
1829;SDS011;914;48.118;11.600;2023-02-11T13:35:48;9.70;;;6.70;;
1829;SDS011;914;48.118;11.600;2023-02-11T13:38:34;10.80;;;6.63;;
1829;SDS011;914;48.118;11.600;2023-02-11T13:41:02;11.53;;;7.30;;
1829;SDS011;914;48.118;11.600;2023-02-11T13:43:33;10.50;;;7.03;;
1829;SDS011;914;48.118;11.600;2023-02-11T13:46:03;8.90;;;6.00;;
1829;SDS011;914;48.118;11.600;2023-02-11T13:48:35;8.37;;;5.97;;
1829;SDS011;914;48.118;11.600;2023-02-11T13:51:06;16.47;;;6.97;;
1829;SDS011;914;48.118;11.600;2023-02-11T13:53:43;19.50;;;8.57;;
1829;SDS011;914;48.118;11.600;2023-02-11T13:56:26;10.37;;;6.23;;
1829;SDS011;914;48.118;11.600;2023-02-11T13:58:57;9.57;;;6.57;;
1829;SDS011;914;48.118;11.600;2023-02-11T14:08:20;9.57;;;6.27;;
1829;SDS011;914;48.118;11.600;2023-02-11T14:11:07;11.03;;;7.53;;
1829;SDS011;914;48.118;11.600;2023-02-11T14:14:23;9.53;;;6.40;;
1829;SDS011;914;48.118;11.600;2023-02-11T14:16:26;11.83;;;6.37;;
1829;SDS011;914;48.118;11.600;2023-02-11T14:31:57;11.33;;;8.50;;
1829;SDS011;914;48.118;11.600;2023-02-11T14:34:43;9.43;;;5.97;;
1829;SDS011;914;48.118;11.600;2023-02-11T14:40:04;12.97;;;6.30;;
1829;SDS011;914;48.118;11.600;2023-02-11T14:42:38;9.00;;;6.60;;
1829;SDS011;914;48.118;11.600;2023-02-11T14:45:05;10.10;;;6.03;;
1829;SDS011;914;48.118;11.600;2023-02-11T14:50:17;13.30;;;7.43;;
1829;SDS011;914;48.118;11.600;2023-02-11T14:52:47;14.73;;;6.60;;
1829;SDS011;914;48.118;11.600;2023-02-11T14:57:44;9.47;;;6.60;;
1829;SDS011;914;48.118;11.600;2023-02-11T15:00:16;10.03;;;6.77;;
1829;SDS011;914;48.118;11.600;2023-02-11T15:02:46;9.93;;;7.43;;
1829;SDS011;914;48.118;11.600;2023-02-11T15:05:16;10.70;;;7.30;;
1829;SDS011;914;48.118;11.600;2023-02-11T15:07:50;13.30;;;8.17;;
1829;SDS011;914;48.118;11.600;2023-02-11T15:10:20;13.97;;;7.73;;
1829;SDS011;914;48.118;11.600;2023-02-11T15:12:59;10.90;;;7.33;;
1829;SDS011;914;48.118;11.600;2023-02-11T15:15:27;12.47;;;8.20;;
1829;SDS011;914;48.118;11.600;2023-02-11T15:17:56;11.70;;;8.13;;
1829;SDS011;914;48.118;11.600;2023-02-11T15:20:26;14.10;;;9.80;;
1829;SDS011;914;48.118;11.600;2023-02-11T15:23:01;13.33;;;9.50;;
1829;SDS011;914;48.118;11.600;2023-02-11T15:25:30;14.03;;;9.33;;
1829;SDS011;914;48.118;11.600;2023-02-11T15:27:56;14.87;;;10.37;;
1829;SDS011;914;48.118;11.600;2023-02-11T15:32:50;14.13;;;9.47;;
1829;SDS011;914;48.118;11.600;2023-02-11T15:35:22;14.90;;;10.40;;
1829;SDS011;914;48.118;11.600;2023-02-11T15:37:49;14.20;;;10.07;;
1829;SDS011;914;48.118;11.600;2023-02-11T15:40:16;13.90;;;10.13;;
1829;SDS011;914;48.118;11.600;2023-02-11T15:42:57;16.07;;;10.80;;
1829;SDS011;914;48.118;11.600;2023-02-11T15:45:41;13.67;;;10.40;;
1829;SDS011;914;48.118;11.600;2023-02-11T15:48:40;15.93;;;10.73;;
1829;SDS011;914;48.118;11.600;2023-02-11T15:53:47;18.07;;;10.93;;
1829;SDS011;914;48.118;11.600;2023-02-11T15:56:24;16.97;;;10.63;;
1829;SDS011;914;48.118;11.600;2023-02-11T15:58:54;16.33;;;10.53;;
1829;SDS011;914;48.118;11.600;2023-02-11T16:01:27;15.23;;;10.23;;
1829;SDS011;914;48.118;11.600;2023-02-11T16:04:01;13.87;;;10.70;;
1829;SDS011;914;48.118;11.600;2023-02-11T16:06:35;16.33;;;11.57;;
1829;SDS011;914;48.118;11.600;2023-02-11T16:09:20;16.43;;;11.23;;
1829;SDS011;914;48.118;11.600;2023-02-11T16:11:55;17.47;;;10.90;;
1829;SDS011;914;48.118;11.600;2023-02-11T16:16:52;19.77;;;11.03;;
1829;SDS011;914;48.118;11.600;2023-02-11T16:19:20;17.23;;;11.87;;
1829;SDS011;914;48.118;11.600;2023-02-11T16:21:48;18.77;;;11.43;;
1829;SDS011;914;48.118;11.600;2023-02-11T16:24:33;16.87;;;11.33;;
1829;SDS011;914;48.118;11.600;2023-02-11T16:27:05;17.03;;;11.63;;
1829;SDS011;914;48.118;11.600;2023-02-11T16:29:43;18.30;;;11.60;;
1829;SDS011;914;48.118;11.600;2023-02-11T16:34:45;16.70;;;11.87;;
1829;SDS011;914;48.118;11.600;2023-02-11T16:37:11;19.67;;;11.57;;
1829;SDS011;914;48.118;11.600;2023-02-11T16:39:36;22.57;;;11.73;;
1829;SDS011;914;48.118;11.600;2023-02-11T16:42:02;16.97;;;11.77;;
1829;SDS011;914;48.118;11.600;2023-02-11T16:44:29;16.10;;;11.97;;
1829;SDS011;914;48.118;11.600;2023-02-11T16:46:57;16.43;;;11.53;;
1829;SDS011;914;48.118;11.600;2023-02-11T16:49:25;16.33;;;11.67;;
1829;SDS011;914;48.118;11.600;2023-02-11T16:52:00;15.90;;;11.37;;
1829;SDS011;914;48.118;11.600;2023-02-11T16:54:29;20.33;;;12.43;;
1829;SDS011;914;48.118;11.600;2023-02-11T16:56:55;21.33;;;12.30;;
1829;SDS011;914;48.118;11.600;2023-02-11T16:59:21;18.43;;;12.07;;
1829;SDS011;914;48.118;11.600;2023-02-11T17:01:47;17.03;;;11.63;;
1829;SDS011;914;48.118;11.600;2023-02-11T17:04:18;21.77;;;12.67;;
1829;SDS011;914;48.118;11.600;2023-02-11T17:06:50;18.13;;;11.60;;
1829;SDS011;914;48.118;11.600;2023-02-11T17:09:20;18.97;;;12.90;;
1829;SDS011;914;48.118;11.600;2023-02-11T17:11:48;17.77;;;12.73;;
1829;SDS011;914;48.118;11.600;2023-02-11T17:14:14;18.67;;;12.47;;
1829;SDS011;914;48.118;11.600;2023-02-11T17:16:40;23.90;;;13.07;;
1829;SDS011;914;48.118;11.600;2023-02-11T17:19:06;18.80;;;12.67;;
1829;SDS011;914;48.118;11.600;2023-02-11T17:21:31;19.97;;;12.63;;
1829;SDS011;914;48.118;11.600;2023-02-11T17:23:57;19.37;;;12.97;;
1829;SDS011;914;48.118;11.600;2023-02-11T17:26:23;20.03;;;13.80;;
1829;SDS011;914;48.118;11.600;2023-02-11T17:28:49;18.67;;;12.53;;
1829;SDS011;914;48.118;11.600;2023-02-11T17:31:15;22.23;;;13.47;;
1829;SDS011;914;48.118;11.600;2023-02-11T17:33:41;17.27;;;12.53;;
1829;SDS011;914;48.118;11.600;2023-02-11T17:36:07;19.30;;;12.83;;
1829;SDS011;914;48.118;11.600;2023-02-11T17:38:34;20.70;;;12.33;;
1829;SDS011;914;48.118;11.600;2023-02-11T17:41:00;19.80;;;13.00;;
1829;SDS011;914;48.118;11.600;2023-02-11T17:43:28;19.27;;;12.80;;
1829;SDS011;914;48.118;11.600;2023-02-11T17:45:54;20.50;;;12.90;;
1829;SDS011;914;48.118;11.600;2023-02-11T17:48:20;18.20;;;12.57;;
1829;SDS011;914;48.118;11.600;2023-02-11T17:50:48;19.43;;;12.57;;
1829;SDS011;914;48.118;11.600;2023-02-11T17:53:13;20.53;;;12.70;;
1829;SDS011;914;48.118;11.600;2023-02-11T17:55:39;20.33;;;12.97;;
1829;SDS011;914;48.118;11.600;2023-02-11T17:58:05;18.93;;;12.90;;
1829;SDS011;914;48.118;11.600;2023-02-11T18:00:30;20.70;;;13.03;;
1829;SDS011;914;48.118;11.600;2023-02-11T18:02:56;22.00;;;13.87;;
1829;SDS011;914;48.118;11.600;2023-02-11T18:05:26;22.37;;;14.03;;
1829;SDS011;914;48.118;11.600;2023-02-11T18:07:53;23.37;;;14.37;;
1829;SDS011;914;48.118;11.600;2023-02-11T18:10:19;23.27;;;14.30;;